sensor_id;sensor_type;location;lat;lon;timestamp;temperature;humidity
42141;DHT22;27809;51.864;5.646;2023-04-06T00:01:34;2.80;26.90
42141;DHT22;27809;51.864;5.646;2023-04-06T00:03:59;2.80;27.70
42141;DHT22;27809;51.864;5.646;2023-04-06T00:06:25;2.80;26.40
42141;DHT22;27809;51.864;5.646;2023-04-06T00:08:51;2.60;29.80
42141;DHT22;27809;51.864;5.646;2023-04-06T00:11:16;2.60;26.10
42141;DHT22;27809;51.864;5.646;2023-04-06T00:13:42;2.60;26.60
42141;DHT22;27809;51.864;5.646;2023-04-06T00:16:07;2.60;26.00
42141;DHT22;27809;51.864;5.646;2023-04-06T00:18:33;2.40;28.70
42141;DHT22;27809;51.864;5.646;2023-04-06T00:20:59;2.50;30.00
42141;DHT22;27809;51.864;5.646;2023-04-06T00:23:24;2.40;31.30
42141;DHT22;27809;51.864;5.646;2023-04-06T00:25:50;2.40;31.50
42141;DHT22;27809;51.864;5.646;2023-04-06T00:28:15;2.50;29.30
42141;DHT22;27809;51.864;5.646;2023-04-06T00:30:41;2.30;30.00
42141;DHT22;27809;51.864;5.646;2023-04-06T00:33:07;2.30;34.20
42141;DHT22;27809;51.864;5.646;2023-04-06T00:35:32;2.50;32.60
42141;DHT22;27809;51.864;5.646;2023-04-06T00:37:58;2.50;31.10
42141;DHT22;27809;51.864;5.646;2023-04-06T00:40:23;2.40;30.20
42141;DHT22;27809;51.864;5.646;2023-04-06T00:42:49;2.40;32.70
42141;DHT22;27809;51.864;5.646;2023-04-06T00:45:15;2.50;33.20
42141;DHT22;27809;51.864;5.646;2023-04-06T00:47:40;2.40;31.20
42141;DHT22;27809;51.864;5.646;2023-04-06T00:50:06;2.50;30.30
42141;DHT22;27809;51.864;5.646;2023-04-06T00:52:33;2.50;31.90
42141;DHT22;27809;51.864;5.646;2023-04-06T00:54:59;2.50;34.30
42141;DHT22;27809;51.864;5.646;2023-04-06T00:57:25;2.50;31.30
42141;DHT22;27809;51.864;5.646;2023-04-06T00:59:52;2.60;27.30
42141;DHT22;27809;51.864;5.646;2023-04-06T01:02:17;2.50;29.70
42141;DHT22;27809;51.864;5.646;2023-04-06T01:04:43;2.50;29.10
42141;DHT22;27809;51.864;5.646;2023-04-06T01:07:09;2.50;28.60
42141;DHT22;27809;51.864;5.646;2023-04-06T01:09:35;2.40;28.00
42141;DHT22;27809;51.864;5.646;2023-04-06T01:12:01;2.30;28.60
42141;DHT22;27809;51.864;5.646;2023-04-06T01:14:26;2.30;24.90
42141;DHT22;27809;51.864;5.646;2023-04-06T01:16:52;2.20;29.50
42141;DHT22;27809;51.864;5.646;2023-04-06T01:19:18;2.20;31.20
42141;DHT22;27809;51.864;5.646;2023-04-06T01:21:44;2.30;30.90
42141;DHT22;27809;51.864;5.646;2023-04-06T01:24:10;2.40;29.90
42141;DHT22;27809;51.864;5.646;2023-04-06T01:26:37;2.40;30.00
42141;DHT22;27809;51.864;5.646;2023-04-06T01:29:03;2.60;25.50
42141;DHT22;27809;51.864;5.646;2023-04-06T01:31:29;2.60;25.80
42141;DHT22;27809;51.864;5.646;2023-04-06T01:33:55;2.40;24.90
42141;DHT22;27809;51.864;5.646;2023-04-06T01:36:21;2.50;25.60
42141;DHT22;27809;51.864;5.646;2023-04-06T01:38:46;2.40;25.50
42141;DHT22;27809;51.864;5.646;2023-04-06T01:41:12;2.50;26.40
42141;DHT22;27809;51.864;5.646;2023-04-06T01:43:38;2.50;28.30
42141;DHT22;27809;51.864;5.646;2023-04-06T01:46:04;2.50;26.60
42141;DHT22;27809;51.864;5.646;2023-04-06T01:48:30;2.40;29.00
42141;DHT22;27809;51.864;5.646;2023-04-06T01:50:55;2.40;28.60
42141;DHT22;27809;51.864;5.646;2023-04-06T01:53:21;2.40;29.20
42141;DHT22;27809;51.864;5.646;2023-04-06T01:55:47;2.40;28.60
42141;DHT22;27809;51.864;5.646;2023-04-06T01:58:13;2.40;29.50
42141;DHT22;27809;51.864;5.646;2023-04-06T02:00:39;2.40;28.90
42141;DHT22;27809;51.864;5.646;2023-04-06T02:03:04;2.50;29.40
42141;DHT22;27809;51.864;5.646;2023-04-06T02:05:31;2.50;28.60
42141;DHT22;27809;51.864;5.646;2023-04-06T02:07:58;2.60;27.30
42141;DHT22;27809;51.864;5.646;2023-04-06T02:10:23;2.70;26.70
42141;DHT22;27809;51.864;5.646;2023-04-06T02:12:49;2.60;31.30
42141;DHT22;27809;51.864;5.646;2023-04-06T02:15:15;2.70;31.30
42141;DHT22;27809;51.864;5.646;2023-04-06T02:17:42;2.60;30.40
42141;DHT22;27809;51.864;5.646;2023-04-06T02:20:08;2.60;33.00
42141;DHT22;27809;51.864;5.646;2023-04-06T02:22:35;2.60;34.70
42141;DHT22;27809;51.864;5.646;2023-04-06T02:25:00;2.60;38.60
42141;DHT22;27809;51.864;5.646;2023-04-06T02:27:26;2.70;41.50
42141;DHT22;27809;51.864;5.646;2023-04-06T02:29:52;2.80;40.70
42141;DHT22;27809;51.864;5.646;2023-04-06T02:32:17;2.80;41.00
42141;DHT22;27809;51.864;5.646;2023-04-06T02:34:43;2.80;41.90
42141;DHT22;27809;51.864;5.646;2023-04-06T02:37:08;2.80;42.10
42141;DHT22;27809;51.864;5.646;2023-04-06T02:39:34;2.80;42.60
42141;DHT22;27809;51.864;5.646;2023-04-06T02:41:59;2.90;43.80
42141;DHT22;27809;51.864;5.646;2023-04-06T02:44:25;2.90;43.60
42141;DHT22;27809;51.864;5.646;2023-04-06T02:46:50;3.00;43.00
42141;DHT22;27809;51.864;5.646;2023-04-06T02:49:16;3.00;43.20
42141;DHT22;27809;51.864;5.646;2023-04-06T02:51:41;3.10;37.20
42141;DHT22;27809;51.864;5.646;2023-04-06T02:54:07;3.20;38.90
42141;DHT22;27809;51.864;5.646;2023-04-06T02:56:33;3.20;40.10
42141;DHT22;27809;51.864;5.646;2023-04-06T02:58:58;3.40;38.00
42141;DHT22;27809;51.864;5.646;2023-04-06T03:01:24;3.30;37.90
42141;DHT22;27809;51.864;5.646;2023-04-06T03:03:49;3.20;39.50
42141;DHT22;27809;51.864;5.646;2023-04-06T03:06:15;3.30;43.00
42141;DHT22;27809;51.864;5.646;2023-04-06T03:08:40;3.30;39.00
42141;DHT22;27809;51.864;5.646;2023-04-06T03:11:06;3.30;39.00
42141;DHT22;27809;51.864;5.646;2023-04-06T03:13:31;3.30;38.70
42141;DHT22;27809;51.864;5.646;2023-04-06T03:15:57;3.30;38.50
42141;DHT22;27809;51.864;5.646;2023-04-06T03:18:23;3.50;36.60
42141;DHT22;27809;51.864;5.646;2023-04-06T03:20:49;3.40;39.60
42141;DHT22;27809;51.864;5.646;2023-04-06T03:23:15;3.40;38.80
42141;DHT22;27809;51.864;5.646;2023-04-06T03:25:41;3.60;39.00
42141;DHT22;27809;51.864;5.646;2023-04-06T03:28:07;3.50;38.60
42141;DHT22;27809;51.864;5.646;2023-04-06T03:30:32;3.50;36.90
42141;DHT22;27809;51.864;5.646;2023-04-06T03:32:58;3.50;36.70
42141;DHT22;27809;51.864;5.646;2023-04-06T03:35:24;3.50;33.50
42141;DHT22;27809;51.864;5.646;2023-04-06T03:37:49;3.60;35.60
42141;DHT22;27809;51.864;5.646;2023-04-06T03:40:15;3.60;37.80
42141;DHT22;27809;51.864;5.646;2023-04-06T03:42:41;3.60;37.90
42141;DHT22;27809;51.864;5.646;2023-04-06T03:45:07;3.70;29.80
42141;DHT22;27809;51.864;5.646;2023-04-06T03:47:32;3.80;28.40
42141;DHT22;27809;51.864;5.646;2023-04-06T03:49:58;3.80;27.30
42141;DHT22;27809;51.864;5.646;2023-04-06T03:52:24;3.90;24.30
42141;DHT22;27809;51.864;5.646;2023-04-06T03:54:49;3.90;29.00
42141;DHT22;27809;51.864;5.646;2023-04-06T03:57:15;3.90;28.40
42141;DHT22;27809;51.864;5.646;2023-04-06T03:59:40;4.10;23.00
42141;DHT22;27809;51.864;5.646;2023-04-06T04:02:06;4.10;19.30
42141;DHT22;27809;51.864;5.646;2023-04-06T04:04:32;4.00;28.00
42141;DHT22;27809;51.864;5.646;2023-04-06T04:06:57;3.90;29.70
42141;DHT22;27809;51.864;5.646;2023-04-06T04:09:23;4.00;25.20
42141;DHT22;27809;51.864;5.646;2023-04-06T04:11:48;4.00;24.20
42141;DHT22;27809;51.864;5.646;2023-04-06T04:14:14;4.20;17.60
42141;DHT22;27809;51.864;5.646;2023-04-06T04:16:39;4.20;20.40
42141;DHT22;27809;51.864;5.646;2023-04-06T04:19:06;4.10;25.20
42141;DHT22;27809;51.864;5.646;2023-04-06T04:21:32;3.90;29.70
42141;DHT22;27809;51.864;5.646;2023-04-06T04:23:57;3.90;31.60
42141;DHT22;27809;51.864;5.646;2023-04-06T04:26:23;3.70;34.60
42141;DHT22;27809;51.864;5.646;2023-04-06T04:28:48;3.60;32.10
42141;DHT22;27809;51.864;5.646;2023-04-06T04:31:14;3.70;28.20
42141;DHT22;27809;51.864;5.646;2023-04-06T04:33:39;3.70;30.90
42141;DHT22;27809;51.864;5.646;2023-04-06T04:36:05;3.60;27.70
42141;DHT22;27809;51.864;5.646;2023-04-06T04:38:31;3.50;28.40
42141;DHT22;27809;51.864;5.646;2023-04-06T04:40:56;3.40;33.10
42141;DHT22;27809;51.864;5.646;2023-04-06T04:43:22;3.50;28.50
42141;DHT22;27809;51.864;5.646;2023-04-06T04:45:47;3.50;34.50
42141;DHT22;27809;51.864;5.646;2023-04-06T04:48:13;3.50;33.60
42141;DHT22;27809;51.864;5.646;2023-04-06T04:50:38;3.40;30.30
42141;DHT22;27809;51.864;5.646;2023-04-06T04:53:04;3.40;33.00
42141;DHT22;27809;51.864;5.646;2023-04-06T04:55:32;3.20;36.50
42141;DHT22;27809;51.864;5.646;2023-04-06T04:57:58;3.30;37.80
42141;DHT22;27809;51.864;5.646;2023-04-06T05:00:23;3.30;34.10
42141;DHT22;27809;51.864;5.646;2023-04-06T05:02:49;3.30;35.10
42141;DHT22;27809;51.864;5.646;2023-04-06T05:05:14;3.40;34.50
42141;DHT22;27809;51.864;5.646;2023-04-06T05:07:40;3.40;38.60
42141;DHT22;27809;51.864;5.646;2023-04-06T05:10:06;3.30;37.70
42141;DHT22;27809;51.864;5.646;2023-04-06T05:12:32;3.30;42.00
42141;DHT22;27809;51.864;5.646;2023-04-06T05:14:57;3.30;43.10
42141;DHT22;27809;51.864;5.646;2023-04-06T05:17:23;3.30;42.50
42141;DHT22;27809;51.864;5.646;2023-04-06T05:19:49;3.30;45.30
42141;DHT22;27809;51.864;5.646;2023-04-06T05:22:14;3.40;45.20
42141;DHT22;27809;51.864;5.646;2023-04-06T05:24:43;3.50;46.60
42141;DHT22;27809;51.864;5.646;2023-04-06T05:27:08;3.60;41.70
42141;DHT22;27809;51.864;5.646;2023-04-06T05:29:34;3.60;40.00
42141;DHT22;27809;51.864;5.646;2023-04-06T05:31:59;3.80;32.30
42141;DHT22;27809;51.864;5.646;2023-04-06T05:34:25;3.80;32.90
42141;DHT22;27809;51.864;5.646;2023-04-06T05:36:50;3.80;39.30
42141;DHT22;27809;51.864;5.646;2023-04-06T05:39:16;3.90;40.50
42141;DHT22;27809;51.864;5.646;2023-04-06T05:41:41;4.00;40.80
42141;DHT22;27809;51.864;5.646;2023-04-06T05:44:07;4.10;40.00
42141;DHT22;27809;51.864;5.646;2023-04-06T05:46:32;4.20;39.10
42141;DHT22;27809;51.864;5.646;2023-04-06T05:48:58;4.10;36.80
42141;DHT22;27809;51.864;5.646;2023-04-06T05:51:23;4.40;30.00
42141;DHT22;27809;51.864;5.646;2023-04-06T05:53:50;4.50;23.00
42141;DHT22;27809;51.864;5.646;2023-04-06T05:56:15;4.50;19.20
42141;DHT22;27809;51.864;5.646;2023-04-06T05:58:41;4.80;17.30
42141;DHT22;27809;51.864;5.646;2023-04-06T06:01:07;4.90;16.70
42141;DHT22;27809;51.864;5.646;2023-04-06T06:03:34;5.00;14.80
42141;DHT22;27809;51.864;5.646;2023-04-06T06:06:03;5.00;11.60
42141;DHT22;27809;51.864;5.646;2023-04-06T06:08:30;5.10;11.70
42141;DHT22;27809;51.864;5.646;2023-04-06T06:10:55;5.00;10.20
42141;DHT22;27809;51.864;5.646;2023-04-06T06:13:22;5.10;10.10
42141;DHT22;27809;51.864;5.646;2023-04-06T06:15:48;5.30;13.00
42141;DHT22;27809;51.864;5.646;2023-04-06T06:18:13;5.40;11.60
42141;DHT22;27809;51.864;5.646;2023-04-06T06:20:39;5.40;12.20
42141;DHT22;27809;51.864;5.646;2023-04-06T06:23:04;5.40;9.60
42141;DHT22;27809;51.864;5.646;2023-04-06T06:25:30;5.50;9.90
42141;DHT22;27809;51.864;5.646;2023-04-06T06:27:56;5.50;8.60
42141;DHT22;27809;51.864;5.646;2023-04-06T06:30:22;5.60;7.70
42141;DHT22;27809;51.864;5.646;2023-04-06T06:32:48;5.70;7.20
42141;DHT22;27809;51.864;5.646;2023-04-06T06:35:13;5.70;7.80
42141;DHT22;27809;51.864;5.646;2023-04-06T06:37:39;5.80;9.00
42141;DHT22;27809;51.864;5.646;2023-04-06T06:40:05;5.80;6.90
42141;DHT22;27809;51.864;5.646;2023-04-06T06:42:31;5.70;7.40
42141;DHT22;27809;51.864;5.646;2023-04-06T06:44:56;5.80;8.20
42141;DHT22;27809;51.864;5.646;2023-04-06T06:47:22;5.90;9.50
42141;DHT22;27809;51.864;5.646;2023-04-06T06:49:47;5.90;7.90
42141;DHT22;27809;51.864;5.646;2023-04-06T06:52:13;6.00;6.90
42141;DHT22;27809;51.864;5.646;2023-04-06T06:54:38;6.10;5.80
42141;DHT22;27809;51.864;5.646;2023-04-06T06:57:04;6.20;7.80
42141;DHT22;27809;51.864;5.646;2023-04-06T06:59:29;6.00;7.20
42141;DHT22;27809;51.864;5.646;2023-04-06T07:01:55;5.90;11.10
42141;DHT22;27809;51.864;5.646;2023-04-06T07:04:20;6.10;11.10
42141;DHT22;27809;51.864;5.646;2023-04-06T07:06:46;6.30;12.40
42141;DHT22;27809;51.864;5.646;2023-04-06T07:09:11;6.20;10.20
42141;DHT22;27809;51.864;5.646;2023-04-06T07:11:37;6.30;13.30
42141;DHT22;27809;51.864;5.646;2023-04-06T07:14:02;6.50;11.80
42141;DHT22;27809;51.864;5.646;2023-04-06T07:16:28;6.50;13.00
42141;DHT22;27809;51.864;5.646;2023-04-06T07:18:53;6.80;10.20
42141;DHT22;27809;51.864;5.646;2023-04-06T07:21:19;6.60;7.70
42141;DHT22;27809;51.864;5.646;2023-04-06T07:23:44;6.60;9.70
42141;DHT22;27809;51.864;5.646;2023-04-06T07:26:11;6.60;8.60
42141;DHT22;27809;51.864;5.646;2023-04-06T07:28:36;6.60;6.20
42141;DHT22;27809;51.864;5.646;2023-04-06T07:31:02;6.70;6.90
42141;DHT22;27809;51.864;5.646;2023-04-06T07:33:27;6.70;6.00
42141;DHT22;27809;51.864;5.646;2023-04-06T07:35:55;6.80;5.50
42141;DHT22;27809;51.864;5.646;2023-04-06T07:38:22;6.70;6.20
42141;DHT22;27809;51.864;5.646;2023-04-06T07:40:47;6.70;5.50
42141;DHT22;27809;51.864;5.646;2023-04-06T07:43:13;6.80;5.00
42141;DHT22;27809;51.864;5.646;2023-04-06T07:45:38;11.40;1.00
42141;DHT22;27809;51.864;5.646;2023-04-06T07:48:04;8.80;1.00
42141;DHT22;27809;51.864;5.646;2023-04-06T07:50:29;7.50;1.00
42141;DHT22;27809;51.864;5.646;2023-04-06T07:52:55;7.30;3.30
42141;DHT22;27809;51.864;5.646;2023-04-06T07:55:21;7.10;5.20
42141;DHT22;27809;51.864;5.646;2023-04-06T07:57:46;7.10;6.00
42141;DHT22;27809;51.864;5.646;2023-04-06T08:00:12;7.30;7.70
42141;DHT22;27809;51.864;5.646;2023-04-06T08:02:38;7.30;6.90
42141;DHT22;27809;51.864;5.646;2023-04-06T08:05:05;7.40;7.40
42141;DHT22;27809;51.864;5.646;2023-04-06T08:07:31;7.30;6.70
42141;DHT22;27809;51.864;5.646;2023-04-06T08:09:56;7.30;3.60
42141;DHT22;27809;51.864;5.646;2023-04-06T08:12:22;7.30;3.70
42141;DHT22;27809;51.864;5.646;2023-04-06T08:14:47;7.50;3.30
42141;DHT22;27809;51.864;5.646;2023-04-06T08:17:13;7.50;2.40
42141;DHT22;27809;51.864;5.646;2023-04-06T08:19:39;7.60;4.70
42141;DHT22;27809;51.864;5.646;2023-04-06T08:22:04;8.50;1.00
42141;DHT22;27809;51.864;5.646;2023-04-06T08:24:30;8.00;1.00
42141;DHT22;27809;51.864;5.646;2023-04-06T08:26:57;7.80;1.00
42141;DHT22;27809;51.864;5.646;2023-04-06T08:29:23;7.80;1.00
42141;DHT22;27809;51.864;5.646;2023-04-06T08:31:48;7.90;1.00
42141;DHT22;27809;51.864;5.646;2023-04-06T08:34:14;8.00;1.00
42141;DHT22;27809;51.864;5.646;2023-04-06T08:36:41;8.20;1.00
42141;DHT22;27809;51.864;5.646;2023-04-06T08:39:06;8.40;1.00
42141;DHT22;27809;51.864;5.646;2023-04-06T08:41:32;8.70;1.00
42141;DHT22;27809;51.864;5.646;2023-04-06T08:44:00;8.80;1.00
42141;DHT22;27809;51.864;5.646;2023-04-06T08:46:26;9.00;1.00
42141;DHT22;27809;51.864;5.646;2023-04-06T08:48:58;9.10;1.00
42141;DHT22;27809;51.864;5.646;2023-04-06T08:51:25;8.90;1.00
42141;DHT22;27809;51.864;5.646;2023-04-06T08:53:54;9.00;1.00
42141;DHT22;27809;51.864;5.646;2023-04-06T08:56:22;9.50;1.00
42141;DHT22;27809;51.864;5.646;2023-04-06T08:58:48;9.50;1.00
42141;DHT22;27809;51.864;5.646;2023-04-06T09:01:16;9.30;1.00
42141;DHT22;27809;51.864;5.646;2023-04-06T09:03:43;9.10;1.00
42141;DHT22;27809;51.864;5.646;2023-04-06T09:06:09;8.90;1.00
42141;DHT22;27809;51.864;5.646;2023-04-06T09:08:39;9.20;1.00
42141;DHT22;27809;51.864;5.646;2023-04-06T09:11:05;9.10;1.00
42141;DHT22;27809;51.864;5.646;2023-04-06T09:13:31;9.50;1.00
42141;DHT22;27809;51.864;5.646;2023-04-06T09:16:05;9.40;1.00
42141;DHT22;27809;51.864;5.646;2023-04-06T09:18:33;9.30;1.00
42141;DHT22;27809;51.864;5.646;2023-04-06T09:21:04;9.60;1.00
42141;DHT22;27809;51.864;5.646;2023-04-06T09:23:30;9.90;1.00
42141;DHT22;27809;51.864;5.646;2023-04-06T09:26:10;9.70;1.00
42141;DHT22;27809;51.864;5.646;2023-04-06T09:28:43;9.90;1.00
42141;DHT22;27809;51.864;5.646;2023-04-06T09:31:09;10.80;1.00
42141;DHT22;27809;51.864;5.646;2023-04-06T09:33:38;13.00;1.00
42141;DHT22;27809;51.864;5.646;2023-04-06T09:36:04;10.70;1.00
42141;DHT22;27809;51.864;5.646;2023-04-06T09:38:30;9.90;1.00
42141;DHT22;27809;51.864;5.646;2023-04-06T09:40:55;9.70;1.00
42141;DHT22;27809;51.864;5.646;2023-04-06T09:43:28;9.60;1.00
42141;DHT22;27809;51.864;5.646;2023-04-06T09:45:55;9.70;1.00
42141;DHT22;27809;51.864;5.646;2023-04-06T09:48:21;9.90;1.00
42141;DHT22;27809;51.864;5.646;2023-04-06T09:50:49;9.90;1.00
42141;DHT22;27809;51.864;5.646;2023-04-06T09:53:18;10.50;1.00
42141;DHT22;27809;51.864;5.646;2023-04-06T09:55:45;10.30;1.00
42141;DHT22;27809;51.864;5.646;2023-04-06T09:58:13;10.30;1.00
42141;DHT22;27809;51.864;5.646;2023-04-06T10:00:48;10.20;1.00
42141;DHT22;27809;51.864;5.646;2023-04-06T10:03:27;9.90;1.00
42141;DHT22;27809;51.864;5.646;2023-04-06T10:06:05;9.90;1.00
42141;DHT22;27809;51.864;5.646;2023-04-06T10:08:38;9.90;1.00
42141;DHT22;27809;51.864;5.646;2023-04-06T10:11:07;10.30;1.00
42141;DHT22;27809;51.864;5.646;2023-04-06T10:13:33;10.20;1.00
42141;DHT22;27809;51.864;5.646;2023-04-06T10:16:00;10.20;1.00
42141;DHT22;27809;51.864;5.646;2023-04-06T10:18:27;10.40;1.00
42141;DHT22;27809;51.864;5.646;2023-04-06T10:20:56;10.30;1.00
42141;DHT22;27809;51.864;5.646;2023-04-06T10:23:43;10.50;1.00
42141;DHT22;27809;51.864;5.646;2023-04-06T10:26:15;10.70;1.00
42141;DHT22;27809;51.864;5.646;2023-04-06T10:28:43;10.70;1.00
42141;DHT22;27809;51.864;5.646;2023-04-06T10:31:08;10.70;1.00
42141;DHT22;27809;51.864;5.646;2023-04-06T10:33:35;10.90;1.00
42141;DHT22;27809;51.864;5.646;2023-04-06T10:36:14;11.00;1.00
42141;DHT22;27809;51.864;5.646;2023-04-06T10:38:41;10.70;1.00
42141;DHT22;27809;51.864;5.646;2023-04-06T10:41:09;10.90;1.00
42141;DHT22;27809;51.864;5.646;2023-04-06T10:43:36;10.70;1.00
42141;DHT22;27809;51.864;5.646;2023-04-06T10:46:02;10.50;1.00
42141;DHT22;27809;51.864;5.646;2023-04-06T10:48:39;10.70;4.40
42141;DHT22;27809;51.864;5.646;2023-04-06T10:51:11;10.60;4.60
42141;DHT22;27809;51.864;5.646;2023-04-06T10:53:37;10.70;12.10
42141;DHT22;27809;51.864;5.646;2023-04-06T10:56:03;10.50;16.30
42141;DHT22;27809;51.864;5.646;2023-04-06T10:58:29;10.50;25.60
42141;DHT22;27809;51.864;5.646;2023-04-06T11:00:56;10.20;32.70
42141;DHT22;27809;51.864;5.646;2023-04-06T11:03:21;10.40;30.40
42141;DHT22;27809;51.864;5.646;2023-04-06T11:05:48;10.20;42.70
42141;DHT22;27809;51.864;5.646;2023-04-06T11:08:31;10.20;46.30
42141;DHT22;27809;51.864;5.646;2023-04-06T11:11:13;10.10;48.10
42141;DHT22;27809;51.864;5.646;2023-04-06T11:16:25;10.00;61.60
42141;DHT22;27809;51.864;5.646;2023-04-06T11:18:53;9.90;71.70
42141;DHT22;27809;51.864;5.646;2023-04-06T11:21:19;10.00;78.00
42141;DHT22;27809;51.864;5.646;2023-04-06T11:23:45;10.00;81.70
42141;DHT22;27809;51.864;5.646;2023-04-06T11:26:14;9.90;85.50
42141;DHT22;27809;51.864;5.646;2023-04-06T11:28:41;10.30;90.40
42141;DHT22;27809;51.864;5.646;2023-04-06T11:31:08;10.60;55.70
42141;DHT22;27809;51.864;5.646;2023-04-06T11:33:37;9.90;68.10
42141;DHT22;27809;51.864;5.646;2023-04-06T11:36:07;9.80;86.80
42141;DHT22;27809;51.864;5.646;2023-04-06T11:38:33;9.60;71.00
42141;DHT22;27809;51.864;5.646;2023-04-06T11:41:00;9.60;90.00
42141;DHT22;27809;51.864;5.646;2023-04-06T11:43:30;9.50;89.30
42141;DHT22;27809;51.864;5.646;2023-04-06T11:46:03;9.40;91.00
42141;DHT22;27809;51.864;5.646;2023-04-06T11:48:30;9.30;84.10
42141;DHT22;27809;51.864;5.646;2023-04-06T11:50:57;9.20;82.20
42141;DHT22;27809;51.864;5.646;2023-04-06T11:53:24;9.00;92.10
42141;DHT22;27809;51.864;5.646;2023-04-06T11:55:50;9.00;94.20
42141;DHT22;27809;51.864;5.646;2023-04-06T11:58:15;8.80;90.20
42141;DHT22;27809;51.864;5.646;2023-04-06T12:00:41;8.70;84.60
42141;DHT22;27809;51.864;5.646;2023-04-06T12:03:13;8.70;87.50
42141;DHT22;27809;51.864;5.646;2023-04-06T12:05:39;8.90;90.40
42141;DHT22;27809;51.864;5.646;2023-04-06T12:08:05;8.80;86.90
42141;DHT22;27809;51.864;5.646;2023-04-06T12:10:31;8.90;92.40
42141;DHT22;27809;51.864;5.646;2023-04-06T12:12:56;9.00;93.30
42141;DHT22;27809;51.864;5.646;2023-04-06T12:15:22;8.80;89.00
42141;DHT22;27809;51.864;5.646;2023-04-06T12:17:47;8.90;97.00
42141;DHT22;27809;51.864;5.646;2023-04-06T12:20:14;8.90;96.40
42141;DHT22;27809;51.864;5.646;2023-04-06T12:22:39;9.00;88.60
42141;DHT22;27809;51.864;5.646;2023-04-06T12:25:05;8.80;98.50
42141;DHT22;27809;51.864;5.646;2023-04-06T12:27:32;8.70;95.50
42141;DHT22;27809;51.864;5.646;2023-04-06T12:29:58;8.70;97.80
42141;DHT22;27809;51.864;5.646;2023-04-06T12:32:23;8.70;98.30
42141;DHT22;27809;51.864;5.646;2023-04-06T12:34:50;8.50;98.20
42141;DHT22;27809;51.864;5.646;2023-04-06T12:37:16;8.60;99.90
42141;DHT22;27809;51.864;5.646;2023-04-06T12:39:41;8.60;99.90
42141;DHT22;27809;51.864;5.646;2023-04-06T12:42:09;8.70;99.90
42141;DHT22;27809;51.864;5.646;2023-04-06T12:44:35;8.60;99.90
42141;DHT22;27809;51.864;5.646;2023-04-06T12:47:00;8.60;99.90
42141;DHT22;27809;51.864;5.646;2023-04-06T12:49:26;8.70;99.90
42141;DHT22;27809;51.864;5.646;2023-04-06T12:51:52;8.70;99.90
42141;DHT22;27809;51.864;5.646;2023-04-06T12:54:17;8.90;99.90
42141;DHT22;27809;51.864;5.646;2023-04-06T12:56:43;8.90;99.90
42141;DHT22;27809;51.864;5.646;2023-04-06T12:59:08;8.80;99.90
42141;DHT22;27809;51.864;5.646;2023-04-06T13:01:34;8.70;99.00
42141;DHT22;27809;51.864;5.646;2023-04-06T13:03:59;8.80;99.90
42141;DHT22;27809;51.864;5.646;2023-04-06T13:06:25;8.80;99.90
42141;DHT22;27809;51.864;5.646;2023-04-06T13:08:54;8.80;99.90
42141;DHT22;27809;51.864;5.646;2023-04-06T13:11:19;8.60;99.90
42141;DHT22;27809;51.864;5.646;2023-04-06T13:13:47;8.70;99.90
42141;DHT22;27809;51.864;5.646;2023-04-06T13:16:12;9.50;94.70
42141;DHT22;27809;51.864;5.646;2023-04-06T13:18:38;9.30;93.10
42141;DHT22;27809;51.864;5.646;2023-04-06T13:21:04;9.80;93.00
42141;DHT22;27809;51.864;5.646;2023-04-06T13:23:31;9.10;96.60
42141;DHT22;27809;51.864;5.646;2023-04-06T13:26:04;8.70;99.90
42141;DHT22;27809;51.864;5.646;2023-04-06T13:28:30;8.60;99.90
42141;DHT22;27809;51.864;5.646;2023-04-06T13:30:58;8.60;99.90
42141;DHT22;27809;51.864;5.646;2023-04-06T13:33:24;8.60;99.90
42141;DHT22;27809;51.864;5.646;2023-04-06T13:35:49;8.50;99.90
42141;DHT22;27809;51.864;5.646;2023-04-06T13:38:15;8.60;99.90
42141;DHT22;27809;51.864;5.646;2023-04-06T13:40:41;8.60;99.90
42141;DHT22;27809;51.864;5.646;2023-04-06T13:43:07;8.50;99.90
42141;DHT22;27809;51.864;5.646;2023-04-06T13:45:33;8.40;99.90
42141;DHT22;27809;51.864;5.646;2023-04-06T13:47:59;8.40;99.90
42141;DHT22;27809;51.864;5.646;2023-04-06T13:50:27;8.30;99.90
42141;DHT22;27809;51.864;5.646;2023-04-06T13:52:53;8.30;99.90
42141;DHT22;27809;51.864;5.646;2023-04-06T13:55:19;8.30;99.90
42141;DHT22;27809;51.864;5.646;2023-04-06T13:57:45;8.30;99.90
42141;DHT22;27809;51.864;5.646;2023-04-06T14:00:11;8.40;99.90
42141;DHT22;27809;51.864;5.646;2023-04-06T14:02:41;8.30;99.90
42141;DHT22;27809;51.864;5.646;2023-04-06T14:05:06;8.50;99.90
42141;DHT22;27809;51.864;5.646;2023-04-06T14:07:32;8.40;99.90
42141;DHT22;27809;51.864;5.646;2023-04-06T14:09:58;8.40;99.90
42141;DHT22;27809;51.864;5.646;2023-04-06T14:12:23;8.50;99.90
42141;DHT22;27809;51.864;5.646;2023-04-06T14:14:49;8.40;99.90
42141;DHT22;27809;51.864;5.646;2023-04-06T14:17:15;8.40;99.90
42141;DHT22;27809;51.864;5.646;2023-04-06T14:19:41;8.40;99.90
42141;DHT22;27809;51.864;5.646;2023-04-06T14:22:06;8.30;99.90
42141;DHT22;27809;51.864;5.646;2023-04-06T14:24:33;8.30;99.90
42141;DHT22;27809;51.864;5.646;2023-04-06T14:27:00;8.30;99.90
42141;DHT22;27809;51.864;5.646;2023-04-06T14:29:26;8.40;99.90
42141;DHT22;27809;51.864;5.646;2023-04-06T14:31:51;8.40;99.90
42141;DHT22;27809;51.864;5.646;2023-04-06T14:34:17;8.40;99.90
42141;DHT22;27809;51.864;5.646;2023-04-06T14:36:42;8.40;99.90
42141;DHT22;27809;51.864;5.646;2023-04-06T14:39:08;8.40;99.90
42141;DHT22;27809;51.864;5.646;2023-04-06T14:41:35;8.30;99.90
42141;DHT22;27809;51.864;5.646;2023-04-06T14:44:01;8.40;99.90
42141;DHT22;27809;51.864;5.646;2023-04-06T14:46:27;8.20;99.90
42141;DHT22;27809;51.864;5.646;2023-04-06T14:48:57;8.30;99.90
42141;DHT22;27809;51.864;5.646;2023-04-06T14:51:25;8.20;99.90
42141;DHT22;27809;51.864;5.646;2023-04-06T14:53:54;8.30;99.90
42141;DHT22;27809;51.864;5.646;2023-04-06T14:56:21;8.30;99.90
42141;DHT22;27809;51.864;5.646;2023-04-06T14:58:47;8.40;99.90
42141;DHT22;27809;51.864;5.646;2023-04-06T15:01:12;8.30;99.90
42141;DHT22;27809;51.864;5.646;2023-04-06T15:03:38;8.30;99.90
42141;DHT22;27809;51.864;5.646;2023-04-06T15:06:03;8.30;99.90
42141;DHT22;27809;51.864;5.646;2023-04-06T15:08:29;8.20;99.90
42141;DHT22;27809;51.864;5.646;2023-04-06T15:10:58;8.20;99.90
42141;DHT22;27809;51.864;5.646;2023-04-06T15:13:24;8.10;99.90
42141;DHT22;27809;51.864;5.646;2023-04-06T15:15:51;8.10;99.90
42141;DHT22;27809;51.864;5.646;2023-04-06T15:18:17;8.10;99.90
42141;DHT22;27809;51.864;5.646;2023-04-06T15:20:43;8.10;99.90
42141;DHT22;27809;51.864;5.646;2023-04-06T15:23:08;8.10;99.90
42141;DHT22;27809;51.864;5.646;2023-04-06T15:25:34;8.10;99.90
42141;DHT22;27809;51.864;5.646;2023-04-06T15:28:00;8.10;99.90
42141;DHT22;27809;51.864;5.646;2023-04-06T15:30:25;8.20;99.90
42141;DHT22;27809;51.864;5.646;2023-04-06T15:32:58;8.10;99.90
42141;DHT22;27809;51.864;5.646;2023-04-06T15:35:26;8.20;99.90
42141;DHT22;27809;51.864;5.646;2023-04-06T15:37:54;8.20;99.90
42141;DHT22;27809;51.864;5.646;2023-04-06T15:40:20;8.20;99.90
42141;DHT22;27809;51.864;5.646;2023-04-06T15:42:45;8.30;99.90
42141;DHT22;27809;51.864;5.646;2023-04-06T15:45:11;8.10;99.90
42141;DHT22;27809;51.864;5.646;2023-04-06T15:47:41;8.10;99.90